sensor_id;sensor_type;location;lat;lon;timestamp;P1;durP1;ratioP1;P2;durP2;ratioP2
17024;SDS011;8629;42.496;25.620;2023-02-28T00:00:37;9.00;;;7.70;;
17024;SDS011;8629;42.496;25.620;2023-02-28T00:03:04;12.87;;;8.23;;
17024;SDS011;8629;42.496;25.620;2023-02-28T00:05:31;8.80;;;7.90;;
17024;SDS011;8629;42.496;25.620;2023-02-28T00:07:59;12.60;;;9.20;;
17024;SDS011;8629;42.496;25.620;2023-02-28T00:10:27;15.50;;;9.30;;
17024;SDS011;8629;42.496;25.620;2023-02-28T00:12:56;10.40;;;8.83;;
17024;SDS011;8629;42.496;25.620;2023-02-28T00:15:25;10.13;;;8.40;;
17024;SDS011;8629;42.496;25.620;2023-02-28T00:17:52;11.50;;;7.93;;
17024;SDS011;8629;42.496;25.620;2023-02-28T00:20:19;11.43;;;8.23;;
17024;SDS011;8629;42.496;25.620;2023-02-28T00:22:47;8.90;;;8.00;;
17024;SDS011;8629;42.496;25.620;2023-02-28T00:25:18;9.00;;;8.10;;
17024;SDS011;8629;42.496;25.620;2023-02-28T00:27:46;9.47;;;7.43;;
17024;SDS011;8629;42.496;25.620;2023-02-28T00:30:14;10.07;;;7.90;;
17024;SDS011;8629;42.496;25.620;2023-02-28T00:32:42;10.77;;;8.00;;
17024;SDS011;8629;42.496;25.620;2023-02-28T00:35:09;12.47;;;8.77;;
17024;SDS011;8629;42.496;25.620;2023-02-28T00:37:36;11.63;;;8.17;;
17024;SDS011;8629;42.496;25.620;2023-02-28T00:40:03;10.07;;;8.37;;
17024;SDS011;8629;42.496;25.620;2023-02-28T00:42:33;9.13;;;8.10;;
17024;SDS011;8629;42.496;25.620;2023-02-28T00:45:00;9.87;;;8.87;;
17024;SDS011;8629;42.496;25.620;2023-02-28T00:47:28;12.63;;;8.70;;
17024;SDS011;8629;42.496;25.620;2023-02-28T00:49:55;11.47;;;10.13;;
17024;SDS011;8629;42.496;25.620;2023-02-28T00:52:22;13.53;;;8.87;;
17024;SDS011;8629;42.496;25.620;2023-02-28T00:54:48;9.53;;;8.03;;
17024;SDS011;8629;42.496;25.620;2023-02-28T00:57:15;8.87;;;7.47;;
17024;SDS011;8629;42.496;25.620;2023-02-28T00:59:43;11.43;;;7.77;;
17024;SDS011;8629;42.496;25.620;2023-02-28T01:02:10;11.23;;;8.33;;
17024;SDS011;8629;42.496;25.620;2023-02-28T01:04:37;10.20;;;8.50;;
17024;SDS011;8629;42.496;25.620;2023-02-28T01:07:04;11.67;;;8.77;;
17024;SDS011;8629;42.496;25.620;2023-02-28T01:09:30;12.93;;;10.33;;
17024;SDS011;8629;42.496;25.620;2023-02-28T01:11:57;7.90;;;7.00;;
17024;SDS011;8629;42.496;25.620;2023-02-28T01:14:24;9.30;;;7.77;;
17024;SDS011;8629;42.496;25.620;2023-02-28T01:16:52;9.43;;;8.50;;
17024;SDS011;8629;42.496;25.620;2023-02-28T01:19:19;11.03;;;7.17;;
17024;SDS011;8629;42.496;25.620;2023-02-28T01:21:45;12.33;;;8.37;;
17024;SDS011;8629;42.496;25.620;2023-02-28T01:24:12;10.17;;;9.17;;
17024;SDS011;8629;42.496;25.620;2023-02-28T01:26:39;13.03;;;8.13;;
17024;SDS011;8629;42.496;25.620;2023-02-28T01:29:06;12.03;;;8.83;;
17024;SDS011;8629;42.496;25.620;2023-02-28T01:31:32;8.70;;;7.90;;
17024;SDS011;8629;42.496;25.620;2023-02-28T01:34:01;10.77;;;8.07;;
17024;SDS011;8629;42.496;25.620;2023-02-28T01:36:28;9.57;;;8.33;;
17024;SDS011;8629;42.496;25.620;2023-02-28T01:38:55;11.07;;;8.83;;
17024;SDS011;8629;42.496;25.620;2023-02-28T01:41:22;11.03;;;7.83;;
17024;SDS011;8629;42.496;25.620;2023-02-28T01:43:55;13.33;;;7.87;;
17024;SDS011;8629;42.496;25.620;2023-02-28T01:46:24;12.30;;;8.43;;
17024;SDS011;8629;42.496;25.620;2023-02-28T01:48:51;11.50;;;9.23;;
17024;SDS011;8629;42.496;25.620;2023-02-28T01:51:21;8.90;;;7.83;;
17024;SDS011;8629;42.496;25.620;2023-02-28T01:53:50;10.13;;;8.83;;
17024;SDS011;8629;42.496;25.620;2023-02-28T01:56:20;12.07;;;9.40;;
17024;SDS011;8629;42.496;25.620;2023-02-28T01:58:48;11.27;;;10.17;;
17024;SDS011;8629;42.496;25.620;2023-02-28T02:01:16;11.50;;;9.10;;
17024;SDS011;8629;42.496;25.620;2023-02-28T02:03:46;12.23;;;8.80;;
17024;SDS011;8629;42.496;25.620;2023-02-28T02:06:21;11.80;;;9.73;;
17024;SDS011;8629;42.496;25.620;2023-02-28T02:08:48;9.40;;;8.30;;
17024;SDS011;8629;42.496;25.620;2023-02-28T02:11:17;10.80;;;9.03;;
17024;SDS011;8629;42.496;25.620;2023-02-28T02:13:49;16.47;;;9.90;;
17024;SDS011;8629;42.496;25.620;2023-02-28T02:16:32;12.20;;;9.13;;
17024;SDS011;8629;42.496;25.620;2023-02-28T02:19:06;11.83;;;9.37;;
17024;SDS011;8629;42.496;25.620;2023-02-28T02:21:49;9.27;;;7.57;;
17024;SDS011;8629;42.496;25.620;2023-02-28T02:27:46;8.57;;;7.73;;
17024;SDS011;8629;42.496;25.620;2023-02-28T02:37:00;9.90;;;7.47;;
17024;SDS011;8629;42.496;25.620;2023-02-28T02:39:36;8.37;;;7.57;;
17024;SDS011;8629;42.496;25.620;2023-02-28T02:42:09;12.70;;;8.07;;
17024;SDS011;8629;42.496;25.620;2023-02-28T02:44:40;13.17;;;7.97;;
17024;SDS011;8629;42.496;25.620;2023-02-28T02:47:10;11.13;;;7.63;;
17024;SDS011;8629;42.496;25.620;2023-02-28T02:49:39;10.47;;;8.40;;
17024;SDS011;8629;42.496;25.620;2023-02-28T02:52:11;9.47;;;8.37;;
17024;SDS011;8629;42.496;25.620;2023-02-28T02:54:40;9.47;;;8.00;;
17024;SDS011;8629;42.496;25.620;2023-02-28T02:57:09;8.77;;;7.80;;
17024;SDS011;8629;42.496;25.620;2023-02-28T02:59:38;9.20;;;7.30;;
17024;SDS011;8629;42.496;25.620;2023-02-28T03:02:06;11.80;;;7.70;;
17024;SDS011;8629;42.496;25.620;2023-02-28T03:04:36;10.37;;;8.80;;
17024;SDS011;8629;42.496;25.620;2023-02-28T03:07:04;9.93;;;7.73;;
17024;SDS011;8629;42.496;25.620;2023-02-28T03:09:33;10.67;;;8.30;;
17024;SDS011;8629;42.496;25.620;2023-02-28T03:12:00;8.03;;;7.20;;
17024;SDS011;8629;42.496;25.620;2023-02-28T03:14:31;9.83;;;8.00;;
17024;SDS011;8629;42.496;25.620;2023-02-28T03:17:18;9.77;;;7.40;;
17024;SDS011;8629;42.496;25.620;2023-02-28T03:19:55;10.27;;;7.93;;
17024;SDS011;8629;42.496;25.620;2023-02-28T03:25:20;9.07;;;6.70;;
17024;SDS011;8629;42.496;25.620;2023-02-28T03:27:55;9.83;;;7.37;;
17024;SDS011;8629;42.496;25.620;2023-02-28T03:30:27;10.47;;;7.57;;
17024;SDS011;8629;42.496;25.620;2023-02-28T03:32:58;10.23;;;6.97;;
17024;SDS011;8629;42.496;25.620;2023-02-28T03:35:30;10.23;;;7.60;;
17024;SDS011;8629;42.496;25.620;2023-02-28T03:38:00;9.57;;;7.27;;
17024;SDS011;8629;42.496;25.620;2023-02-28T03:40:32;13.13;;;6.93;;
17024;SDS011;8629;42.496;25.620;2023-02-28T03:43:00;9.63;;;6.43;;
17024;SDS011;8629;42.496;25.620;2023-02-28T03:45:30;11.93;;;9.53;;
17024;SDS011;8629;42.496;25.620;2023-02-28T03:48:00;8.77;;;7.13;;
17024;SDS011;8629;42.496;25.620;2023-02-28T03:50:29;9.13;;;7.03;;
17024;SDS011;8629;42.496;25.620;2023-02-28T03:53:04;6.93;;;6.23;;
17024;SDS011;8629;42.496;25.620;2023-02-28T03:55:37;11.30;;;6.17;;
17024;SDS011;8629;42.496;25.620;2023-02-28T03:58:07;7.67;;;6.77;;
17024;SDS011;8629;42.496;25.620;2023-02-28T04:00:39;17.13;;;11.50;;
17024;SDS011;8629;42.496;25.620;2023-02-28T04:03:07;10.67;;;7.77;;
17024;SDS011;8629;42.496;25.620;2023-02-28T04:05:39;10.90;;;7.00;;
17024;SDS011;8629;42.496;25.620;2023-02-28T04:08:14;12.67;;;7.90;;
17024;SDS011;8629;42.496;25.620;2023-02-28T04:10:42;11.70;;;7.47;;
17024;SDS011;8629;42.496;25.620;2023-02-28T04:13:12;8.43;;;6.70;;
17024;SDS011;8629;42.496;25.620;2023-02-28T04:15:38;11.40;;;7.10;;
17024;SDS011;8629;42.496;25.620;2023-02-28T04:18:06;8.67;;;6.23;;
17024;SDS011;8629;42.496;25.620;2023-02-28T04:20:32;9.93;;;7.37;;
17024;SDS011;8629;42.496;25.620;2023-02-28T04:22:59;8.03;;;7.07;;
17024;SDS011;8629;42.496;25.620;2023-02-28T04:25:26;13.63;;;5.90;;
17024;SDS011;8629;42.496;25.620;2023-02-28T04:27:54;7.77;;;6.47;;
17024;SDS011;8629;42.496;25.620;2023-02-28T04:30:21;7.33;;;6.30;;
17024;SDS011;8629;42.496;25.620;2023-02-28T04:32:47;10.67;;;6.07;;
17024;SDS011;8629;42.496;25.620;2023-02-28T04:35:14;7.00;;;6.30;;
17024;SDS011;8629;42.496;25.620;2023-02-28T04:37:42;11.07;;;6.80;;
17024;SDS011;8629;42.496;25.620;2023-02-28T04:40:09;10.87;;;7.47;;
17024;SDS011;8629;42.496;25.620;2023-02-28T04:42:36;8.03;;;7.17;;
17024;SDS011;8629;42.496;25.620;2023-02-28T04:45:05;7.17;;;6.43;;
17024;SDS011;8629;42.496;25.620;2023-02-28T04:47:35;7.80;;;6.20;;
17024;SDS011;8629;42.496;25.620;2023-02-28T04:50:02;10.07;;;7.63;;
17024;SDS011;8629;42.496;25.620;2023-02-28T04:52:29;9.87;;;8.67;;
17024;SDS011;8629;42.496;25.620;2023-02-28T04:54:56;11.43;;;8.27;;
17024;SDS011;8629;42.496;25.620;2023-02-28T04:57:23;10.50;;;7.53;;
17024;SDS011;8629;42.496;25.620;2023-02-28T04:59:51;7.97;;;6.97;;
17024;SDS011;8629;42.496;25.620;2023-02-28T05:02:19;9.30;;;7.53;;
17024;SDS011;8629;42.496;25.620;2023-02-28T05:04:46;10.47;;;6.83;;
17024;SDS011;8629;42.496;25.620;2023-02-28T05:07:12;12.03;;;9.77;;
17024;SDS011;8629;42.496;25.620;2023-02-28T05:09:42;11.37;;;8.70;;
17024;SDS011;8629;42.496;25.620;2023-02-28T05:12:09;7.90;;;6.50;;
17024;SDS011;8629;42.496;25.620;2023-02-28T05:14:35;10.23;;;6.93;;
17024;SDS011;8629;42.496;25.620;2023-02-28T05:17:02;7.40;;;6.27;;
17024;SDS011;8629;42.496;25.620;2023-02-28T05:19:30;9.60;;;6.93;;
17024;SDS011;8629;42.496;25.620;2023-02-28T05:21:57;10.80;;;7.23;;
17024;SDS011;8629;42.496;25.620;2023-02-28T05:24:24;10.07;;;6.27;;
17024;SDS011;8629;42.496;25.620;2023-02-28T05:26:52;8.97;;;7.00;;
17024;SDS011;8629;42.496;25.620;2023-02-28T05:29:19;10.00;;;6.73;;
17024;SDS011;8629;42.496;25.620;2023-02-28T05:31:46;12.50;;;7.10;;
17024;SDS011;8629;42.496;25.620;2023-02-28T05:34:13;9.87;;;7.43;;
17024;SDS011;8629;42.496;25.620;2023-02-28T05:36:42;8.57;;;7.67;;
17024;SDS011;8629;42.496;25.620;2023-02-28T05:39:09;6.90;;;6.17;;
17024;SDS011;8629;42.496;25.620;2023-02-28T05:41:38;7.17;;;5.53;;
17024;SDS011;8629;42.496;25.620;2023-02-28T05:44:08;8.03;;;5.43;;
17024;SDS011;8629;42.496;25.620;2023-02-28T05:46:35;7.60;;;5.40;;
17024;SDS011;8629;42.496;25.620;2023-02-28T05:49:02;13.83;;;6.17;;
17024;SDS011;8629;42.496;25.620;2023-02-28T05:51:29;10.97;;;6.87;;
17024;SDS011;8629;42.496;25.620;2023-02-28T05:53:59;6.77;;;5.93;;
17024;SDS011;8629;42.496;25.620;2023-02-28T05:56:26;13.13;;;8.40;;
17024;SDS011;8629;42.496;25.620;2023-02-28T05:58:53;8.90;;;7.27;;
17024;SDS011;8629;42.496;25.620;2023-02-28T06:01:21;32.67;;;21.17;;
17024;SDS011;8629;42.496;25.620;2023-02-28T06:03:50;19.50;;;14.30;;
17024;SDS011;8629;42.496;25.620;2023-02-28T06:06:17;9.10;;;8.20;;
17024;SDS011;8629;42.496;25.620;2023-02-28T06:08:43;9.13;;;6.83;;
17024;SDS011;8629;42.496;25.620;2023-02-28T06:11:12;10.07;;;8.43;;
17024;SDS011;8629;42.496;25.620;2023-02-28T06:13:39;9.27;;;8.47;;
17024;SDS011;8629;42.496;25.620;2023-02-28T06:16:05;8.53;;;7.63;;
17024;SDS011;8629;42.496;25.620;2023-02-28T06:18:33;8.00;;;7.07;;
17024;SDS011;8629;42.496;25.620;2023-02-28T06:20:59;8.80;;;7.00;;
17024;SDS011;8629;42.496;25.620;2023-02-28T06:23:26;8.77;;;6.57;;
17024;SDS011;8629;42.496;25.620;2023-02-28T06:25:53;9.63;;;6.80;;
17024;SDS011;8629;42.496;25.620;2023-02-28T06:28:24;7.27;;;5.30;;
17024;SDS011;8629;42.496;25.620;2023-02-28T06:30:51;8.43;;;5.47;;
17024;SDS011;8629;42.496;25.620;2023-02-28T06:33:18;11.03;;;7.33;;
17024;SDS011;8629;42.496;25.620;2023-02-28T06:35:46;9.07;;;7.40;;
17024;SDS011;8629;42.496;25.620;2023-02-28T06:38:13;13.67;;;10.47;;
17024;SDS011;8629;42.496;25.620;2023-02-28T06:40:39;15.50;;;9.97;;
17024;SDS011;8629;42.496;25.620;2023-02-28T06:43:06;17.60;;;10.63;;
17024;SDS011;8629;42.496;25.620;2023-02-28T06:45:34;13.77;;;8.10;;
17024;SDS011;8629;42.496;25.620;2023-02-28T06:48:01;11.37;;;7.73;;
17024;SDS011;8629;42.496;25.620;2023-02-28T06:50:28;10.80;;;6.87;;
17024;SDS011;8629;42.496;25.620;2023-02-28T06:52:55;7.10;;;6.40;;
17024;SDS011;8629;42.496;25.620;2023-02-28T06:55:22;11.57;;;9.07;;
17024;SDS011;8629;42.496;25.620;2023-02-28T06:57:49;9.43;;;7.47;;
17024;SDS011;8629;42.496;25.620;2023-02-28T07:00:16;14.13;;;8.20;;
17024;SDS011;8629;42.496;25.620;2023-02-28T07:02:45;20.77;;;12.03;;
17024;SDS011;8629;42.496;25.620;2023-02-28T07:05:13;14.97;;;10.87;;
17024;SDS011;8629;42.496;25.620;2023-02-28T07:07:40;9.83;;;8.83;;
17024;SDS011;8629;42.496;25.620;2023-02-28T07:10:09;8.07;;;6.03;;
17024;SDS011;8629;42.496;25.620;2023-02-28T07:12:37;5.87;;;5.17;;
17024;SDS011;8629;42.496;25.620;2023-02-28T07:15:04;9.33;;;5.57;;
17024;SDS011;8629;42.496;25.620;2023-02-28T07:17:32;11.80;;;6.37;;
17024;SDS011;8629;42.496;25.620;2023-02-28T07:20:00;7.70;;;5.13;;
17024;SDS011;8629;42.496;25.620;2023-02-28T07:22:29;9.10;;;5.83;;
17024;SDS011;8629;42.496;25.620;2023-02-28T07:24:56;8.73;;;6.67;;
17024;SDS011;8629;42.496;25.620;2023-02-28T07:27:23;8.43;;;7.63;;
17024;SDS011;8629;42.496;25.620;2023-02-28T07:29:50;10.57;;;6.70;;
17024;SDS011;8629;42.496;25.620;2023-02-28T07:32:18;9.40;;;6.17;;
17024;SDS011;8629;42.496;25.620;2023-02-28T07:34:45;8.17;;;6.97;;
17024;SDS011;8629;42.496;25.620;2023-02-28T07:37:13;11.97;;;6.43;;
17024;SDS011;8629;42.496;25.620;2023-02-28T07:39:40;16.37;;;7.83;;
17024;SDS011;8629;42.496;25.620;2023-02-28T07:42:08;10.83;;;8.67;;
17024;SDS011;8629;42.496;25.620;2023-02-28T07:44:37;13.83;;;9.33;;
17024;SDS011;8629;42.496;25.620;2023-02-28T07:47:06;11.90;;;8.97;;
17024;SDS011;8629;42.496;25.620;2023-02-28T07:49:33;19.37;;;11.27;;
17024;SDS011;8629;42.496;25.620;2023-02-28T07:52:00;18.53;;;12.13;;
17024;SDS011;8629;42.496;25.620;2023-02-28T07:54:29;13.27;;;11.27;;
17024;SDS011;8629;42.496;25.620;2023-02-28T07:56:56;11.70;;;8.47;;
17024;SDS011;8629;42.496;25.620;2023-02-28T07:59:22;10.00;;;8.00;;
17024;SDS011;8629;42.496;25.620;2023-02-28T08:01:49;9.93;;;8.93;;
17024;SDS011;8629;42.496;25.620;2023-02-28T08:04:16;8.80;;;7.73;;
17024;SDS011;8629;42.496;25.620;2023-02-28T08:06:43;8.90;;;7.30;;
17024;SDS011;8629;42.496;25.620;2023-02-28T08:09:10;13.00;;;8.23;;
17024;SDS011;8629;42.496;25.620;2023-02-28T08:11:39;10.10;;;7.93;;
17024;SDS011;8629;42.496;25.620;2023-02-28T08:14:05;10.33;;;8.23;;
17024;SDS011;8629;42.496;25.620;2023-02-28T08:16:32;14.47;;;8.17;;
17024;SDS011;8629;42.496;25.620;2023-02-28T08:18:59;12.93;;;7.40;;
17024;SDS011;8629;42.496;25.620;2023-02-28T08:21:25;13.17;;;7.50;;
17024;SDS011;8629;42.496;25.620;2023-02-28T08:23:52;13.93;;;11.50;;
17024;SDS011;8629;42.496;25.620;2023-02-28T08:26:19;13.20;;;9.83;;
17024;SDS011;8629;42.496;25.620;2023-02-28T08:28:48;11.60;;;9.80;;
17024;SDS011;8629;42.496;25.620;2023-02-28T08:31:15;12.23;;;10.30;;
17024;SDS011;8629;42.496;25.620;2023-02-28T08:33:43;14.63;;;10.50;;
17024;SDS011;8629;42.496;25.620;2023-02-28T08:36:23;9.40;;;7.73;;
17024;SDS011;8629;42.496;25.620;2023-02-28T08:38:50;12.77;;;9.90;;
17024;SDS011;8629;42.496;25.620;2023-02-28T08:41:17;12.07;;;7.70;;
17024;SDS011;8629;42.496;25.620;2023-02-28T08:43:44;13.30;;;8.90;;
17024;SDS011;8629;42.496;25.620;2023-02-28T08:46:12;14.23;;;11.10;;
17024;SDS011;8629;42.496;25.620;2023-02-28T08:48:40;13.20;;;10.10;;
17024;SDS011;8629;42.496;25.620;2023-02-28T08:51:07;11.33;;;6.83;;
17024;SDS011;8629;42.496;25.620;2023-02-28T08:53:36;9.47;;;7.13;;
17024;SDS011;8629;42.496;25.620;2023-02-28T08:56:04;20.87;;;13.53;;
17024;SDS011;8629;42.496;25.620;2023-02-28T08:58:32;23.27;;;14.43;;
17024;SDS011;8629;42.496;25.620;2023-02-28T09:00:59;11.77;;;8.37;;
17024;SDS011;8629;42.496;25.620;2023-02-28T09:03:27;13.77;;;9.13;;
17024;SDS011;8629;42.496;25.620;2023-02-28T09:05:55;11.70;;;8.43;;
17024;SDS011;8629;42.496;25.620;2023-02-28T09:08:23;7.67;;;6.90;;
17024;SDS011;8629;42.496;25.620;2023-02-28T09:10:50;8.10;;;6.23;;
17024;SDS011;8629;42.496;25.620;2023-02-28T09:13:22;7.47;;;6.43;;
17024;SDS011;8629;42.496;25.620;2023-02-28T09:15:49;8.73;;;6.37;;
17024;SDS011;8629;42.496;25.620;2023-02-28T09:18:16;9.03;;;6.53;;
17024;SDS011;8629;42.496;25.620;2023-02-28T09:20:44;8.67;;;7.77;;
17024;SDS011;8629;42.496;25.620;2023-02-28T09:23:11;10.87;;;6.63;;
17024;SDS011;8629;42.496;25.620;2023-02-28T09:25:44;9.03;;;6.87;;
17024;SDS011;8629;42.496;25.620;2023-02-28T09:28:12;10.30;;;6.40;;
17024;SDS011;8629;42.496;25.620;2023-02-28T09:30:39;8.30;;;7.13;;
17024;SDS011;8629;42.496;25.620;2023-02-28T09:33:06;7.47;;;6.23;;
17024;SDS011;8629;42.496;25.620;2023-02-28T09:35:32;11.10;;;6.23;;
17024;SDS011;8629;42.496;25.620;2023-02-28T09:38:01;10.50;;;5.97;;
17024;SDS011;8629;42.496;25.620;2023-02-28T09:40:28;8.20;;;6.50;;
17024;SDS011;8629;42.496;25.620;2023-02-28T09:42:55;7.73;;;6.07;;
17024;SDS011;8629;42.496;25.620;2023-02-28T09:45:29;10.13;;;6.73;;
17024;SDS011;8629;42.496;25.620;2023-02-28T09:47:58;8.13;;;6.17;;
17024;SDS011;8629;42.496;25.620;2023-02-28T09:50:31;9.33;;;6.73;;
17024;SDS011;8629;42.496;25.620;2023-02-28T09:53:02;9.53;;;7.93;;
17024;SDS011;8629;42.496;25.620;2023-02-28T09:55:33;11.23;;;6.60;;
17024;SDS011;8629;42.496;25.620;2023-02-28T09:58:03;7.73;;;6.93;;
17024;SDS011;8629;42.496;25.620;2023-02-28T10:00:30;7.53;;;5.97;;
17024;SDS011;8629;42.496;25.620;2023-02-28T10:03:02;12.83;;;10.70;;
17024;SDS011;8629;42.496;25.620;2023-02-28T10:05:33;7.90;;;7.10;;
17024;SDS011;8629;42.496;25.620;2023-02-28T10:08:05;9.43;;;6.90;;
17024;SDS011;8629;42.496;25.620;2023-02-28T10:10:37;8.87;;;7.97;;
17024;SDS011;8629;42.496;25.620;2023-02-28T10:13:07;9.77;;;7.70;;
17024;SDS011;8629;42.496;25.620;2023-02-28T10:15:41;16.63;;;12.27;;
17024;SDS011;8629;42.496;25.620;2023-02-28T10:18:09;14.33;;;10.33;;
17024;SDS011;8629;42.496;25.620;2023-02-28T10:20:38;12.37;;;7.63;;
17024;SDS011;8629;42.496;25.620;2023-02-28T10:23:09;12.53;;;9.40;;
17024;SDS011;8629;42.496;25.620;2023-02-28T10:25:39;12.47;;;8.70;;
17024;SDS011;8629;42.496;25.620;2023-02-28T10:28:10;12.40;;;7.97;;
17024;SDS011;8629;42.496;25.620;2023-02-28T10:30:42;10.07;;;8.37;;
17024;SDS011;8629;42.496;25.620;2023-02-28T10:33:18;14.27;;;6.60;;
17024;SDS011;8629;42.496;25.620;2023-02-28T10:35:46;15.53;;;8.73;;
17024;SDS011;8629;42.496;25.620;2023-02-28T10:38:19;10.73;;;7.37;;
17024;SDS011;8629;42.496;25.620;2023-02-28T10:40:47;12.17;;;10.83;;
17024;SDS011;8629;42.496;25.620;2023-02-28T10:43:20;12.37;;;8.50;;
17024;SDS011;8629;42.496;25.620;2023-02-28T10:48:39;18.00;;;11.57;;
17024;SDS011;8629;42.496;25.620;2023-02-28T10:51:08;17.93;;;11.00;;
17024;SDS011;8629;42.496;25.620;2023-02-28T10:53:47;13.80;;;7.57;;
17024;SDS011;8629;42.496;25.620;2023-02-28T10:56:15;16.67;;;8.37;;
17024;SDS011;8629;42.496;25.620;2023-02-28T10:58:53;11.43;;;7.30;;
17024;SDS011;8629;42.496;25.620;2023-02-28T11:01:22;22.00;;;8.60;;
17024;SDS011;8629;42.496;25.620;2023-02-28T11:03:50;13.70;;;7.70;;
17024;SDS011;8629;42.496;25.620;2023-02-28T11:06:18;12.97;;;7.83;;
17024;SDS011;8629;42.496;25.620;2023-02-28T11:08:48;16.60;;;8.07;;
17024;SDS011;8629;42.496;25.620;2023-02-28T11:11:17;11.73;;;7.10;;
17024;SDS011;8629;42.496;25.620;2023-02-28T11:13:45;8.07;;;7.03;;
17024;SDS011;8629;42.496;25.620;2023-02-28T11:16:15;11.33;;;6.77;;
17024;SDS011;8629;42.496;25.620;2023-02-28T11:18:42;10.50;;;8.07;;
17024;SDS011;8629;42.496;25.620;2023-02-28T11:21:17;9.43;;;7.07;;
17024;SDS011;8629;42.496;25.620;2023-02-28T11:23:48;11.07;;;6.90;;
17024;SDS011;8629;42.496;25.620;2023-02-28T11:26:16;12.07;;;7.23;;
17024;SDS011;8629;42.496;25.620;2023-02-28T11:28:43;11.83;;;7.10;;
17024;SDS011;8629;42.496;25.620;2023-02-28T11:31:19;10.43;;;8.57;;
17024;SDS011;8629;42.496;25.620;2023-02-28T11:33:48;7.90;;;6.57;;
17024;SDS011;8629;42.496;25.620;2023-02-28T11:36:17;9.00;;;7.03;;
17024;SDS011;8629;42.496;25.620;2023-02-28T11:38:48;9.33;;;8.33;;
17024;SDS011;8629;42.496;25.620;2023-02-28T11:41:25;10.40;;;9.37;;
17024;SDS011;8629;42.496;25.620;2023-02-28T11:44:01;8.90;;;7.40;;
17024;SDS011;8629;42.496;25.620;2023-02-28T11:46:37;7.40;;;6.63;;
17024;SDS011;8629;42.496;25.620;2023-02-28T11:49:13;7.63;;;6.37;;
17024;SDS011;8629;42.496;25.620;2023-02-28T11:51:47;8.83;;;7.70;;
17024;SDS011;8629;42.496;25.620;2023-02-28T11:54:23;11.03;;;7.43;;
17024;SDS011;8629;42.496;25.620;2023-02-28T11:56:55;9.73;;;8.00;;
17024;SDS011;8629;42.496;25.620;2023-02-28T11:59:30;10.87;;;7.37;;
17024;SDS011;8629;42.496;25.620;2023-02-28T12:02:14;8.70;;;6.93;;
17024;SDS011;8629;42.496;25.620;2023-02-28T12:04:49;10.27;;;8.97;;
17024;SDS011;8629;42.496;25.620;2023-02-28T12:07:22;9.67;;;7.70;;
17024;SDS011;8629;42.496;25.620;2023-02-28T12:09:57;17.00;;;12.60;;
17024;SDS011;8629;42.496;25.620;2023-02-28T12:12:35;10.90;;;8.53;;
17024;SDS011;8629;42.496;25.620;2023-02-28T12:15:12;15.90;;;10.87;;
17024;SDS011;8629;42.496;25.620;2023-02-28T12:17:46;13.67;;;11.57;;
17024;SDS011;8629;42.496;25.620;2023-02-28T12:20:23;10.00;;;8.67;;
17024;SDS011;8629;42.496;25.620;2023-02-28T12:22:55;18.77;;;14.17;;
17024;SDS011;8629;42.496;25.620;2023-02-28T12:25:43;17.70;;;15.10;;
17024;SDS011;8629;42.496;25.620;2023-02-28T12:28:16;20.10;;;15.20;;
17024;SDS011;8629;42.496;25.620;2023-02-28T12:30:49;16.73;;;12.67;;
17024;SDS011;8629;42.496;25.620;2023-02-28T12:33:19;18.67;;;14.33;;
17024;SDS011;8629;42.496;25.620;2023-02-28T12:35:48;15.67;;;12.83;;
17024;SDS011;8629;42.496;25.620;2023-02-28T12:38:17;18.87;;;12.57;;
17024;SDS011;8629;42.496;25.620;2023-02-28T12:40:51;25.80;;;17.83;;
17024;SDS011;8629;42.496;25.620;2023-02-28T12:43:20;21.03;;;13.97;;
17024;SDS011;8629;42.496;25.620;2023-02-28T12:45:50;22.33;;;15.93;;
17024;SDS011;8629;42.496;25.620;2023-02-28T12:48:19;14.83;;;10.87;;
17024;SDS011;8629;42.496;25.620;2023-02-28T12:50:52;15.43;;;11.70;;
17024;SDS011;8629;42.496;25.620;2023-02-28T12:53:22;34.67;;;24.83;;
17024;SDS011;8629;42.496;25.620;2023-02-28T12:55:55;33.80;;;22.90;;
17024;SDS011;8629;42.496;25.620;2023-02-28T12:58:27;27.27;;;18.43;;
17024;SDS011;8629;42.496;25.620;2023-02-28T13:01:04;29.83;;;20.93;;
17024;SDS011;8629;42.496;25.620;2023-02-28T13:03:43;38.30;;;25.57;;
17024;SDS011;8629;42.496;25.620;2023-02-28T13:06:21;33.83;;;19.23;;
17024;SDS011;8629;42.496;25.620;2023-02-28T13:09:04;19.53;;;13.80;;
17024;SDS011;8629;42.496;25.620;2023-02-28T13:11:37;20.93;;;16.20;;
17024;SDS011;8629;42.496;25.620;2023-02-28T13:14:06;18.53;;;15.50;;
17024;SDS011;8629;42.496;25.620;2023-02-28T13:16:54;27.10;;;18.73;;
17024;SDS011;8629;42.496;25.620;2023-02-28T13:19:22;26.57;;;20.13;;
17024;SDS011;8629;42.496;25.620;2023-02-28T13:21:50;19.27;;;14.67;;
17024;SDS011;8629;42.496;25.620;2023-02-28T13:24:38;22.13;;;14.83;;
17024;SDS011;8629;42.496;25.620;2023-02-28T13:27:20;19.63;;;15.47;;
17024;SDS011;8629;42.496;25.620;2023-02-28T13:29:51;24.53;;;17.60;;
17024;SDS011;8629;42.496;25.620;2023-02-28T13:32:20;24.00;;;17.67;;
17024;SDS011;8629;42.496;25.620;2023-02-28T13:35:14;12.23;;;10.93;;
17024;SDS011;8629;42.496;25.620;2023-02-28T13:38:09;31.87;;;23.53;;
17024;SDS011;8629;42.496;25.620;2023-02-28T13:40:49;32.63;;;21.17;;
17024;SDS011;8629;42.496;25.620;2023-02-28T13:43:19;19.00;;;14.03;;
17024;SDS011;8629;42.496;25.620;2023-02-28T13:48:36;108.03;;;54.63;;
17024;SDS011;8629;42.496;25.620;2023-02-28T13:53:59;33.20;;;24.60;;
17024;SDS011;8629;42.496;25.620;2023-02-28T13:56:35;15.97;;;11.50;;
17024;SDS011;8629;42.496;25.620;2023-02-28T13:59:15;26.57;;;21.90;;
17024;SDS011;8629;42.496;25.620;2023-02-28T14:01:49;20.40;;;16.67;;
17024;SDS011;8629;42.496;25.620;2023-02-28T14:04:40;19.33;;;12.37;;
17024;SDS011;8629;42.496;25.620;2023-02-28T14:07:21;11.93;;;10.00;;
17024;SDS011;8629;42.496;25.620;2023-02-28T14:09:52;23.00;;;12.67;;
17024;SDS011;8629;42.496;25.620;2023-02-28T14:15:40;17.47;;;13.90;;
17024;SDS011;8629;42.496;25.620;2023-02-28T14:18:17;16.10;;;11.80;;
17024;SDS011;8629;42.496;25.620;2023-02-28T14:20:48;15.07;;;11.83;;
17024;SDS011;8629;42.496;25.620;2023-02-28T14:23:18;14.70;;;11.97;;
17024;SDS011;8629;42.496;25.620;2023-02-28T14:25:54;26.17;;;18.23;;
17024;SDS011;8629;42.496;25.620;2023-02-28T14:28:25;21.40;;;16.50;;
17024;SDS011;8629;42.496;25.620;2023-02-28T14:31:03;29.93;;;22.17;;
17024;SDS011;8629;42.496;25.620;2023-02-28T14:33:38;45.73;;;34.90;;
17024;SDS011;8629;42.496;25.620;2023-02-28T14:36:21;31.30;;;24.17;;
17024;SDS011;8629;42.496;25.620;2023-02-28T14:38:52;27.23;;;23.13;;
17024;SDS011;8629;42.496;25.620;2023-02-28T14:41:22;16.47;;;13.00;;
17024;SDS011;8629;42.496;25.620;2023-02-28T14:43:51;15.23;;;12.83;;
17024;SDS011;8629;42.496;25.620;2023-02-28T14:46:23;29.97;;;26.93;;
17024;SDS011;8629;42.496;25.620;2023-02-28T14:48:53;40.63;;;36.47;;
17024;SDS011;8629;42.496;25.620;2023-02-28T14:51:21;21.60;;;16.83;;
17024;SDS011;8629;42.496;25.620;2023-02-28T14:53:50;43.73;;;33.03;;
17024;SDS011;8629;42.496;25.620;2023-02-28T14:56:20;19.50;;;15.40;;
17024;SDS011;8629;42.496;25.620;2023-02-28T14:58:52;20.40;;;18.20;;
17024;SDS011;8629;42.496;25.620;2023-02-28T15:01:20;17.17;;;13.40;;
17024;SDS011;8629;42.496;25.620;2023-02-28T15:03:50;16.07;;;11.50;;
17024;SDS011;8629;42.496;25.620;2023-02-28T15:06:23;15.50;;;12.80;;
17024;SDS011;8629;42.496;25.620;2023-02-28T15:11:35;12.63;;;10.63;;
17024;SDS011;8629;42.496;25.620;2023-02-28T15:14:04;17.43;;;11.87;;
17024;SDS011;8629;42.496;25.620;2023-02-28T15:16:31;11.40;;;9.17;;
17024;SDS011;8629;42.496;25.620;2023-02-28T15:19:03;18.57;;;14.03;;